createdAt,value
2022-07-31T00:01:09.857Z,97.79
2022-07-31T00:03:39.421Z,97.76
2022-07-31T00:06:09.390Z,97.65
2022-07-31T00:08:38.349Z,97.67
2022-07-31T00:11:07.231Z,97.70
2022-07-31T00:13:57.363Z,97.69
2022-07-31T00:16:24.806Z,97.75
2022-07-31T00:18:53.895Z,97.74
2022-07-31T00:21:22.786Z,97.87
2022-07-31T00:23:51.729Z,97.96
2022-07-31T00:26:20.537Z,97.94
2022-07-31T00:28:49.365Z,97.93
2022-07-31T00:31:19.067Z,97.92
2022-07-31T00:33:47.859Z,98.04
2022-07-31T00:36:17.046Z,97.91
2022-07-31T00:38:45.945Z,98.00
2022-07-31T00:41:16.061Z,97.95
2022-07-31T00:43:44.855Z,98.01
2022-07-31T00:46:14.263Z,98.04
2022-07-31T00:48:43.764Z,97.84
2022-07-31T00:51:12.951Z,97.96
2022-07-31T00:53:43.881Z,97.94
2022-07-31T00:56:12.621Z,97.95
2022-07-31T00:58:41.361Z,97.99
2022-07-31T01:01:10.622Z,97.91
2022-07-31T01:03:40.040Z,97.97
2022-07-31T01:06:09.832Z,97.76
2022-07-31T01:08:38.584Z,97.93
2022-07-31T01:11:34.795Z,97.89
2022-07-31T01:14:08.936Z,97.84
2022-07-31T01:16:45.685Z,97.83
2022-07-31T01:19:52.698Z,97.89
2022-07-31T01:22:46.881Z,97.92
2022-07-31T01:25:46.801Z,97.80
2022-07-31T01:28:41.803Z,97.71
2022-07-31T01:31:26.852Z,97.92
2022-07-31T01:34:06.482Z,97.87
2022-07-31T01:36:40.514Z,97.98
2022-07-31T01:39:09.564Z,97.95
2022-07-31T01:41:42.657Z,97.88
2022-07-31T01:44:14.584Z,98.13
2022-07-31T01:46:47.338Z,97.91
2022-07-31T01:49:19.676Z,97.83
2022-07-31T01:51:48.884Z,97.84
2022-07-31T01:54:21.103Z,97.83
2022-07-31T01:56:50.945Z,97.84
2022-07-31T01:59:22.905Z,97.80
2022-07-31T02:02:14.652Z,97.96
2022-07-31T02:04:47.796Z,98.07
2022-07-31T02:07:18.915Z,97.99
2022-07-31T02:09:50.945Z,97.91
2022-07-31T02:12:34.201Z,98.01
2022-07-31T02:15:24.978Z,97.97
2022-07-31T02:17:55.271Z,97.93
2022-07-31T02:20:26.326Z,97.79
2022-07-31T02:22:58.193Z,97.88
2022-07-31T02:25:28.148Z,97.78
2022-07-31T02:28:00.587Z,98.05
2022-07-31T02:30:39.145Z,97.87
2022-07-31T02:33:17.391Z,98.16
2022-07-31T02:35:50.257Z,98.17
2022-07-31T02:38:23.485Z,98.22
2022-07-31T02:41:05.483Z,98.01
2022-07-31T02:43:36.139Z,97.93
2022-07-31T02:46:15.151Z,98.02
2022-07-31T02:48:45.300Z,97.92
2022-07-31T02:51:15.948Z,97.97
2022-07-31T02:53:44.896Z,97.84
2022-07-31T02:56:14.639Z,98.00
2022-07-31T02:58:44.679Z,97.78
2022-07-31T03:01:23.273Z,97.81
2022-07-31T03:03:53.205Z,97.82
2022-07-31T03:06:22.042Z,97.81
2022-07-31T03:08:50.890Z,97.73
2022-07-31T03:11:22.946Z,97.76
2022-07-31T03:13:54.823Z,97.65
2022-07-31T03:16:24.391Z,97.62
2022-07-31T03:18:54.706Z,97.71
2022-07-31T03:21:24.318Z,97.74
2022-07-31T03:23:53.375Z,97.74
2022-07-31T03:26:24.556Z,98.20
2022-07-31T03:28:54.593Z,98.43
2022-07-31T03:31:23.445Z,98.47
2022-07-31T03:33:52.248Z,98.72
2022-07-31T03:36:21.362Z,98.78
2022-07-31T03:38:50.716Z,98.72
2022-07-31T03:41:34.377Z,98.76
2022-07-31T03:44:03.749Z,98.73
2022-07-31T03:46:33.272Z,98.62
2022-07-31T03:49:02.436Z,98.68
2022-07-31T03:51:32.672Z,98.97
2022-07-31T03:54:01.712Z,98.82
2022-07-31T03:56:53.389Z,98.98
2022-07-31T03:59:26.464Z,98.99
2022-07-31T04:01:58.974Z,98.92
2022-07-31T04:04:46.360Z,98.59
2022-07-31T04:07:16.210Z,98.52
2022-07-31T04:09:45.977Z,98.59
2022-07-31T04:12:17.403Z,98.61
2022-07-31T04:14:46.460Z,98.75
2022-07-31T04:17:15.561Z,98.70
2022-07-31T04:19:44.435Z,98.56
2022-07-31T04:22:13.286Z,98.24
2022-07-31T04:24:42.139Z,98.22
2022-07-31T04:27:48.585Z,97.97
2022-07-31T04:30:19.090Z,98.14
2022-07-31T04:32:49.117Z,98.63
2022-07-31T04:35:23.070Z,98.57
2022-07-31T04:37:52.081Z,99.06
2022-07-31T04:40:23.029Z,98.97
2022-07-31T04:42:51.807Z,98.72
2022-07-31T04:45:20.590Z,98.62
2022-07-31T04:47:49.608Z,98.26
2022-07-31T04:50:19.234Z,98.27
2022-07-31T04:52:57.952Z,97.85
2022-07-31T04:55:29.790Z,97.46
2022-07-31T04:57:58.733Z,96.88
2022-07-31T05:00:28.312Z,96.73
2022-07-31T05:02:57.311Z,96.26
2022-07-31T05:05:26.170Z,95.50
2022-07-31T05:07:55.079Z,94.57
2022-07-31T05:10:46.759Z,93.96
2022-07-31T05:13:16.657Z,93.54
2022-07-31T05:15:45.547Z,93.00
2022-07-31T05:18:14.357Z,92.45
2022-07-31T05:20:43.136Z,92.30
2022-07-31T05:23:27.294Z,91.60
2022-07-31T05:26:06.367Z,91.81
2022-07-31T05:28:35.259Z,91.10
2022-07-31T05:31:04.603Z,90.75
2022-07-31T05:33:34.318Z,89.25
2022-07-31T05:36:04.479Z,90.06
2022-07-31T05:38:33.644Z,89.83
2022-07-31T05:41:22.919Z,89.05
2022-07-31T05:44:01.055Z,87.68
2022-07-31T05:46:35.928Z,86.19
2022-07-31T05:49:05.076Z,87.87
2022-07-31T05:51:34.426Z,89.46
2022-07-31T05:54:03.545Z,89.86
2022-07-31T05:56:50.591Z,90.23
2022-07-31T05:59:24.586Z,91.00
2022-07-31T06:01:54.937Z,91.91
2022-07-31T06:04:25.582Z,91.00
2022-07-31T06:06:54.601Z,90.40
2022-07-31T06:09:23.455Z,91.41
2022-07-31T06:11:52.687Z,91.67
2022-07-31T06:14:21.554Z,91.61
2022-07-31T06:17:10.290Z,91.94
2022-07-31T06:19:40.395Z,92.26
2022-07-31T06:22:09.631Z,92.63
2022-07-31T06:24:40.597Z,93.65
2022-07-31T06:27:16.251Z,93.87
2022-07-31T06:30:01.339Z,93.50
2022-07-31T06:32:32.740Z,93.52
2022-07-31T06:35:03.251Z,93.72
2022-07-31T06:37:36.117Z,93.82
2022-07-31T06:40:05.462Z,93.91
2022-07-31T06:42:40.087Z,93.06
2022-07-31T06:45:09.752Z,93.05
2022-07-31T06:47:56.872Z,94.39
2022-07-31T06:50:37.081Z,94.64
2022-07-31T06:53:19.636Z,95.55
2022-07-31T06:55:48.570Z,96.10
2022-07-31T06:58:17.432Z,96.57
2022-07-31T07:00:47.840Z,96.60
2022-07-31T07:03:16.978Z,96.58
2022-07-31T07:05:45.932Z,96.77
2022-07-31T07:08:16.399Z,97.29
2022-07-31T07:10:47.748Z,97.23
2022-07-31T07:13:45.158Z,97.05
2022-07-31T07:16:15.348Z,97.17
2022-07-31T07:18:44.841Z,97.41
2022-07-31T07:21:14.318Z,97.57
2022-07-31T07:23:43.921Z,97.29
2022-07-31T07:26:27.647Z,96.91
2022-07-31T07:28:56.550Z,96.37
2022-07-31T07:31:25.774Z,96.11
2022-07-31T07:33:56.242Z,95.06
2022-07-31T07:36:26.200Z,94.93
2022-07-31T07:38:59.035Z,93.87
2022-07-31T07:41:28.193Z,93.66
2022-07-31T07:43:57.295Z,93.47
2022-07-31T07:46:28.761Z,94.00
2022-07-31T07:49:03.575Z,94.51
2022-07-31T07:51:59.057Z,94.99
2022-07-31T07:54:52.407Z,95.41
2022-07-31T07:57:40.553Z,95.18
2022-07-31T08:00:42.518Z,94.71
2022-07-31T08:03:48.353Z,95.62
2022-07-31T08:06:00.608Z,96.05
2022-07-31T08:08:29.715Z,96.41
2022-07-31T08:11:36.877Z,97.55
2022-07-31T08:14:18.491Z,97.14
2022-07-31T08:17:22.053Z,97.24
2022-07-31T08:19:51.824Z,96.99
2022-07-31T08:22:21.028Z,96.82
2022-07-31T08:24:50.075Z,96.50
2022-07-31T08:27:39.889Z,96.52
2022-07-31T08:30:11.554Z,96.81
2022-07-31T08:32:40.416Z,96.85
2022-07-31T08:35:12.041Z,97.05
2022-07-31T08:37:51.801Z,96.88
2022-07-31T08:40:43.086Z,96.88
2022-07-31T08:44:00.434Z,96.81
2022-07-31T08:46:05.637Z,96.78
2022-07-31T08:48:41.880Z,96.65
2022-07-31T08:51:14.360Z,96.52
2022-07-31T08:54:23.245Z,96.51
2022-07-31T08:56:53.565Z,96.43
2022-07-31T08:59:23.686Z,96.35
2022-07-31T09:01:53.840Z,96.38
2022-07-31T09:04:25.377Z,96.42
2022-07-31T09:06:55.326Z,96.54
2022-07-31T09:09:24.185Z,96.66
2022-07-31T09:12:13.129Z,96.45
2022-07-31T09:15:43.462Z,96.39
2022-07-31T09:18:31.868Z,96.50
2022-07-31T09:21:13.251Z,96.58
2022-07-31T09:23:47.395Z,96.55
2022-07-31T09:26:16.657Z,96.87
2022-07-31T09:28:49.432Z,97.08
2022-07-31T09:31:18.274Z,97.17
2022-07-31T09:34:00.309Z,97.09
2022-07-31T09:36:41.072Z,97.04
2022-07-31T09:39:28.469Z,96.61
2022-07-31T09:42:45.615Z,96.45
2022-07-31T09:45:26.238Z,96.19
2022-07-31T09:48:16.192Z,96.44
2022-07-31T09:50:56.556Z,95.91
2022-07-31T09:53:26.932Z,95.67
2022-07-31T09:56:16.708Z,95.66
2022-07-31T09:58:46.733Z,96.08
2022-07-31T10:01:17.289Z,96.28
2022-07-31T10:03:51.038Z,96.51
2022-07-31T10:06:21.442Z,96.45
2022-07-31T10:08:51.189Z,96.74
2022-07-31T10:11:41.203Z,96.82
2022-07-31T10:14:20.262Z,97.04
2022-07-31T10:16:51.657Z,97.19
2022-07-31T10:19:50.669Z,97.09
2022-07-31T10:22:32.583Z,96.60
2022-07-31T10:25:02.849Z,95.80
2022-07-31T10:27:33.766Z,95.03
2022-07-31T10:30:11.870Z,95.50
2022-07-31T10:32:45.426Z,96.08
2022-07-31T10:35:43.949Z,95.92
2022-07-31T10:38:52.555Z,96.76
2022-07-31T10:41:49.160Z,96.98
2022-07-31T10:44:35.498Z,97.23
2022-07-31T10:47:27.803Z,97.42
2022-07-31T10:50:25.429Z,97.51
2022-07-31T10:53:20.630Z,97.62
2022-07-31T10:56:14.440Z,97.73
2022-07-31T10:58:59.679Z,97.63
2022-07-31T11:01:58.286Z,97.63
2022-07-31T11:04:50.429Z,97.74
2022-07-31T11:07:48.864Z,97.85
2022-07-31T11:10:38.250Z,98.06
2022-07-31T11:13:51.090Z,97.85
2022-07-31T11:16:56.380Z,98.06
2022-07-31T11:19:45.494Z,98.06
2022-07-31T11:22:31.576Z,98.24
2022-07-31T11:25:01.321Z,98.19
2022-07-31T11:27:35.574Z,98.24
2022-07-31T11:30:12.561Z,97.83
2022-07-31T11:32:50.300Z,98.01
2022-07-31T11:35:27.804Z,98.08
2022-07-31T11:37:58.471Z,98.39
2022-07-31T11:40:29.038Z,97.82
2022-07-31T11:45:53.332Z,97.90
2022-07-31T11:48:27.528Z,97.80
2022-07-31T11:50:56.957Z,97.68
2022-07-31T11:53:26.385Z,97.75
2022-07-31T11:55:59.911Z,97.64
2022-07-31T11:58:30.399Z,97.72
2022-07-31T12:01:01.577Z,97.81
2022-07-31T12:03:37.201Z,97.60
2022-07-31T12:06:08.445Z,97.89
2022-07-31T12:08:40.444Z,97.72
2022-07-31T12:11:11.366Z,97.82
2022-07-31T12:13:45.524Z,97.88
2022-07-31T12:16:14.520Z,97.77
2022-07-31T12:18:54.280Z,97.70
2022-07-31T12:21:34.840Z,97.78
2022-07-31T12:24:12.069Z,97.79
2022-07-31T12:26:45.057Z,97.84
2022-07-31T12:29:14.129Z,97.59
2022-07-31T12:31:54.258Z,97.67
2022-07-31T12:34:34.486Z,97.51
2022-07-31T12:37:10.115Z,97.65
2022-07-31T12:39:59.289Z,97.80
2022-07-31T12:42:40.823Z,97.88
2022-07-31T12:45:19.185Z,97.89
2022-07-31T12:47:54.006Z,97.87
2022-07-31T12:50:24.323Z,97.85
2022-07-31T12:52:54.222Z,98.06
2022-07-31T12:55:23.221Z,98.05
2022-07-31T12:57:52.502Z,98.08
2022-07-31T13:00:24.557Z,98.01
2022-07-31T13:02:55.608Z,98.18
2022-07-31T13:05:26.248Z,98.17
2022-07-31T13:07:55.891Z,98.07
2022-07-31T13:10:30.893Z,98.01
2022-07-31T13:13:01.574Z,98.01
2022-07-31T13:15:30.397Z,98.11
2022-07-31T13:18:02.468Z,98.01
2022-07-31T13:20:31.938Z,97.92
2022-07-31T13:23:01.816Z,98.37
2022-07-31T13:25:33.463Z,98.13
2022-07-31T13:28:02.326Z,98.11
2022-07-31T13:30:31.146Z,98.24
2022-07-31T13:32:59.976Z,98.19
2022-07-31T13:35:29.310Z,98.00
2022-07-31T13:37:58.453Z,98.21
2022-07-31T13:40:46.319Z,98.13
2022-07-31T13:43:15.924Z,97.97
2022-07-31T13:45:44.948Z,97.92
2022-07-31T13:48:13.841Z,97.73
2022-07-31T13:50:42.766Z,97.83
2022-07-31T13:53:11.990Z,97.52
2022-07-31T13:55:40.767Z,97.89
2022-07-31T13:58:09.706Z,98.01
2022-07-31T14:00:39.517Z,97.71
2022-07-31T14:03:08.514Z,97.72
2022-07-31T14:05:40.142Z,97.68
2022-07-31T14:08:33.384Z,97.59
2022-07-31T14:10:58.758Z,97.91
2022-07-31T14:13:28.166Z,98.18
2022-07-31T14:15:57.415Z,98.09
2022-07-31T14:18:26.366Z,98.07
2022-07-31T14:20:55.234Z,98.13
2022-07-31T14:23:27.813Z,97.90
2022-07-31T14:26:05.720Z,97.97
2022-07-31T14:28:34.701Z,97.83
2022-07-31T14:31:03.448Z,97.81
2022-07-31T14:33:32.418Z,98.03
2022-07-31T14:36:01.317Z,98.19
2022-07-31T14:38:30.346Z,98.14
2022-07-31T14:40:59.448Z,98.30
2022-07-31T14:43:28.294Z,97.97
2022-07-31T14:45:57.100Z,97.94
2022-07-31T14:48:25.952Z,97.95
2022-07-31T14:50:54.869Z,97.90
2022-07-31T14:53:23.769Z,97.86
2022-07-31T14:55:52.654Z,97.82
2022-07-31T14:58:21.963Z,97.82
2022-07-31T15:00:51.280Z,97.73
2022-07-31T15:03:20.166Z,98.04
2022-07-31T15:06:41.098Z,97.94
2022-07-31T15:08:39.536Z,97.91
2022-07-31T15:11:08.569Z,97.71
2022-07-31T15:13:39.052Z,97.65
2022-07-31T15:16:10.070Z,97.70
2022-07-31T15:18:38.977Z,97.95
2022-07-31T15:21:13.058Z,97.91
2022-07-31T15:23:41.847Z,97.88
2022-07-31T15:26:10.677Z,97.94
2022-07-31T15:28:39.551Z,97.86
2022-07-31T15:31:08.533Z,97.69
2022-07-31T15:33:37.379Z,97.81
2022-07-31T15:36:14.800Z,97.69
2022-07-31T15:38:44.309Z,97.62
2022-07-31T15:41:18.963Z,97.68
2022-07-31T15:43:48.004Z,97.84
2022-07-31T15:46:16.821Z,97.79
2022-07-31T15:48:45.868Z,97.80
2022-07-31T15:51:14.784Z,97.70
2022-07-31T15:53:43.608Z,97.66
2022-07-31T15:56:12.418Z,97.86
2022-07-31T15:58:41.291Z,97.72
2022-07-31T16:01:10.749Z,97.64
2022-07-31T16:03:50.383Z,97.74
2022-07-31T16:06:20.087Z,97.68
2022-07-31T16:10:03.845Z,97.44
2022-07-31T16:12:35.692Z,97.71
2022-07-31T16:15:07.828Z,97.73
2022-07-31T16:17:39.767Z,97.89
2022-07-31T16:20:20.778Z,97.83
2022-07-31T16:22:58.819Z,97.90
2022-07-31T16:25:29.504Z,97.82
2022-07-31T16:28:01.083Z,97.74
2022-07-31T16:30:29.950Z,97.80
2022-07-31T16:32:58.811Z,97.87
2022-07-31T16:35:28.121Z,97.84
2022-07-31T16:37:57.127Z,97.62
2022-07-31T16:40:30.840Z,97.45
2022-07-31T16:43:47.161Z,97.79
2022-07-31T16:45:54.753Z,97.76
2022-07-31T16:48:23.812Z,97.79
2022-07-31T16:50:53.424Z,97.80
2022-07-31T16:54:11.278Z,97.76
2022-07-31T16:56:17.928Z,97.71
2022-07-31T16:58:48.406Z,97.74
2022-07-31T17:01:58.849Z,97.88
2022-07-31T17:04:08.335Z,97.73
2022-07-31T17:06:38.230Z,97.69
2022-07-31T17:09:16.985Z,97.69
2022-07-31T17:11:49.540Z,97.76
2022-07-31T17:14:20.112Z,97.76
2022-07-31T17:16:50.418Z,97.90
2022-07-31T17:19:41.913Z,97.83
2022-07-31T17:22:11.081Z,97.80
2022-07-31T17:24:40.669Z,97.78
2022-07-31T17:27:10.207Z,97.73
2022-07-31T17:29:39.887Z,97.67
2022-07-31T17:32:11.328Z,97.67
2022-07-31T17:34:41.319Z,97.69
2022-07-31T17:37:10.389Z,97.61
2022-07-31T17:39:39.395Z,97.66
2022-07-31T17:42:09.558Z,97.63
2022-07-31T17:44:39.914Z,97.50
2022-07-31T17:47:09.640Z,97.51
2022-07-31T17:49:38.902Z,97.46
2022-07-31T17:52:07.853Z,97.77
2022-07-31T17:54:36.652Z,97.58
2022-07-31T17:57:05.735Z,97.75
2022-07-31T17:59:34.857Z,97.82
2022-07-31T18:02:04.724Z,97.87
2022-07-31T18:04:36.088Z,97.90
2022-07-31T18:07:07.343Z,97.76
2022-07-31T18:09:37.221Z,98.08
2022-07-31T18:12:06.683Z,97.88
2022-07-31T18:14:36.585Z,97.86
2022-07-31T18:17:05.940Z,97.90
2022-07-31T18:19:34.883Z,97.87
2022-07-31T18:22:04.087Z,97.78
2022-07-31T18:24:33.153Z,97.70
2022-07-31T18:27:02.021Z,97.55
2022-07-31T18:29:30.787Z,97.60
2022-07-31T18:31:59.589Z,97.58
2022-07-31T18:34:28.712Z,97.50
2022-07-31T18:36:57.552Z,97.44
2022-07-31T18:39:26.389Z,97.51
2022-07-31T18:41:55.237Z,97.54
2022-07-31T18:44:24.097Z,97.63
2022-07-31T18:46:53.625Z,97.63
2022-07-31T18:50:59.943Z,97.75
2022-07-31T18:52:12.316Z,97.50
2022-07-31T18:54:46.489Z,97.39
2022-07-31T18:57:15.369Z,97.45
2022-07-31T18:59:44.166Z,97.42
2022-07-31T19:02:13.664Z,97.37
2022-07-31T19:04:42.654Z,97.52
2022-07-31T19:07:11.496Z,97.40
2022-07-31T19:09:40.820Z,97.16
2022-07-31T19:12:10.601Z,97.71
2022-07-31T19:14:40.863Z,97.54
2022-07-31T19:17:09.716Z,97.62
2022-07-31T19:19:54.333Z,97.74
2022-07-31T19:22:24.508Z,97.88
2022-07-31T19:24:53.871Z,97.92
2022-07-31T19:27:46.844Z,98.01
2022-07-31T19:30:14.334Z,97.93
2022-07-31T19:32:43.754Z,98.08
2022-07-31T19:35:12.653Z,98.18
2022-07-31T19:37:41.546Z,98.18
2022-07-31T19:40:11.049Z,98.02
2022-07-31T19:42:40.121Z,98.13
2022-07-31T19:45:09.244Z,98.29
2022-07-31T19:47:38.181Z,98.41
2022-07-31T19:50:08.058Z,98.34
2022-07-31T19:52:36.834Z,98.28
2022-07-31T19:55:07.105Z,98.27
2022-07-31T19:57:38.333Z,98.31
2022-07-31T20:00:12.417Z,98.24
2022-07-31T20:02:42.196Z,98.31
2022-07-31T20:05:11.684Z,98.35
2022-07-31T20:07:40.582Z,98.46
2022-07-31T20:10:12.774Z,98.46
2022-07-31T20:12:41.982Z,98.37
2022-07-31T20:15:11.224Z,98.34
2022-07-31T20:17:40.083Z,98.39
2022-07-31T20:20:15.282Z,98.15
2022-07-31T20:22:44.973Z,98.24
2022-07-31T20:25:19.724Z,98.30
2022-07-31T20:27:50.431Z,98.16
2022-07-31T20:30:22.432Z,98.15
2022-07-31T20:32:52.092Z,98.03
2022-07-31T20:35:33.040Z,97.97
2022-07-31T20:38:15.925Z,98.10
2022-07-31T20:40:49.943Z,98.06
2022-07-31T20:43:25.588Z,98.17
2022-07-31T20:45:58.799Z,98.27
2022-07-31T20:48:35.471Z,98.29
2022-07-31T20:51:05.812Z,98.19
2022-07-31T20:53:34.758Z,98.33
2022-07-31T20:56:03.532Z,98.26
2022-07-31T20:58:32.325Z,98.23
2022-07-31T21:01:01.777Z,98.38
2022-07-31T21:03:30.898Z,98.40
2022-07-31T21:05:59.930Z,98.25
2022-07-31T21:08:28.760Z,98.55
2022-07-31T21:11:01.136Z,98.50
2022-07-31T21:13:30.220Z,98.50
2022-07-31T21:15:59.424Z,98.83
2022-07-31T21:18:32.715Z,98.62
2022-07-31T21:21:03.224Z,98.57
2022-07-31T21:23:32.530Z,98.45
2022-07-31T21:26:03.234Z,98.50
2022-07-31T21:28:32.381Z,98.56
2022-07-31T21:31:01.636Z,98.40
2022-07-31T21:33:30.574Z,98.48
2022-07-31T21:35:59.828Z,98.52
2022-07-31T21:38:29.091Z,98.59
2022-07-31T21:40:58.360Z,98.28
2022-07-31T21:43:39.106Z,98.32
2022-07-31T21:46:23.447Z,98.23
2022-07-31T21:48:52.943Z,98.35
2022-07-31T21:51:22.158Z,98.46
2022-07-31T21:53:50.936Z,98.33
2022-07-31T21:56:19.808Z,98.41
2022-07-31T21:58:49.020Z,98.43
2022-07-31T22:01:19.842Z,98.57
2022-07-31T22:03:48.846Z,98.71
2022-07-31T22:06:36.099Z,98.44
2022-07-31T22:09:04.998Z,98.52
2022-07-31T22:11:34.392Z,98.46
2022-07-31T22:14:03.189Z,98.41
2022-07-31T22:16:31.986Z,98.42
2022-07-31T22:19:01.381Z,98.58
2022-07-31T22:21:30.359Z,98.56
2022-07-31T22:23:59.356Z,98.73
2022-07-31T22:26:30.377Z,98.56
2022-07-31T22:28:59.601Z,98.67
2022-07-31T22:31:31.417Z,98.74
2022-07-31T22:34:00.314Z,98.81
2022-07-31T22:36:29.214Z,98.66
2022-07-31T22:38:58.190Z,98.72
2022-07-31T22:41:27.315Z,98.82
2022-07-31T22:44:12.634Z,98.78
2022-07-31T22:46:43.842Z,98.79
2022-07-31T22:49:13.266Z,98.80
2022-07-31T22:51:46.368Z,98.82
2022-07-31T22:54:15.504Z,98.91
2022-07-31T22:56:44.264Z,98.73
2022-07-31T22:59:13.090Z,99.04
2022-07-31T23:01:43.352Z,99.10
2022-07-31T23:04:12.598Z,99.01
2022-07-31T23:06:41.401Z,99.20
2022-07-31T23:09:10.239Z,99.02
2022-07-31T23:11:44.655Z,99.19
2022-07-31T23:14:38.627Z,99.20
2022-07-31T23:17:07.448Z,99.20
2022-07-31T23:19:36.303Z,98.95
2022-07-31T23:22:05.348Z,98.81
2022-07-31T23:24:34.251Z,98.73
2022-07-31T23:27:08.766Z,98.74
2022-07-31T23:29:41.291Z,98.80
2022-07-31T23:32:10.930Z,98.49
2022-07-31T23:34:39.853Z,98.74
2022-07-31T23:37:09.900Z,98.81
2022-07-31T23:39:38.846Z,98.37
2022-07-31T23:42:26.242Z,98.58
2022-07-31T23:44:55.010Z,98.73
2022-07-31T23:47:27.963Z,98.65
2022-07-31T23:50:15.483Z,98.54
2022-07-31T23:52:45.042Z,98.60
2022-07-31T23:55:14.247Z,98.52
2022-07-31T23:57:43.353Z,98.67
